KAL991 RKSI-RKSI
Flight info
| Callsign | KAL991 |
|---|---|
| Flight time | 1h 33m |
| Altitude | 17000 |
| Route | EGOBA Y697 KAE Y437 TENAS DCT 371422N1315208E DCT AGSUS DCT CUN Y685 GUKDO |
| Aircraft | A359/H-SDE2E3GHIJ3J4J5LM1ORWXY/LB1D1 |
Departure
| Time | 2026-05-04 03:13 |
|---|---|
| Airport | Incheon International Airport (RKSI) |
Arrival
| Time | 2026-05-04 04:47 |
|---|---|
| Airport | Incheon International Airport (RKSI) |
| Time | Latitude | Longitude | Altitude | Speed | Heading |
|---|---|---|---|---|---|
| 2026-05-04 02:50 | 37.46470 | 126.43129 | 39 ft | 0 kts | 63° |
| 2026-05-04 02:58 | 37.46469 | 126.43128 | 39 ft | 0 kts | 62° |
| 2026-05-04 02:59 | 37.46469 | 126.43127 | 39 ft | 0 kts | 62° |
| 2026-05-04 03:03 | 37.46468 | 126.43124 | 39 ft | 0 kts | 62° |
| 2026-05-04 03:03 | 37.46458 | 126.43101 | 39 ft | 4 kts | 62° |
| 2026-05-04 03:03 | 37.46444 | 126.43068 | 38 ft | 4 kts | 62° |
| 2026-05-04 03:04 | 37.46429 | 126.43035 | 36 ft | 4 kts | 76° |
| 2026-05-04 03:04 | 37.46432 | 126.43001 | 35 ft | 3 kts | 140° |
| 2026-05-04 03:04 | 37.46449 | 126.42991 | 36 ft | 3 kts | 150° |
| 2026-05-04 03:04 | 37.46450 | 126.42991 | 39 ft | 0 kts | 149° |
| 2026-05-04 03:06 | 37.46432 | 126.43002 | 39 ft | 9 kts | 153° |
| 2026-05-04 03:06 | 37.46368 | 126.42997 | 39 ft | 11 kts | 211° |
| 2026-05-04 03:06 | 37.46315 | 126.42921 | 39 ft | 12 kts | 228° |
| 2026-05-04 03:07 | 37.46235 | 126.42914 | 39 ft | 13 kts | 157° |
| 2026-05-04 03:07 | 37.46152 | 126.42981 | 39 ft | 16 kts | 144° |
| 2026-05-04 03:07 | 37.46055 | 126.43068 | 39 ft | 18 kts | 144° |
| 2026-05-04 03:07 | 37.45943 | 126.43168 | 39 ft | 21 kts | 144° |
| 2026-05-04 03:08 | 37.45817 | 126.43280 | 38 ft | 23 kts | 144° |
| 2026-05-04 03:08 | 37.45677 | 126.43405 | 38 ft | 26 kts | 144° |
| 2026-05-04 03:08 | 37.45525 | 126.43540 | 39 ft | 28 kts | 144° |
| 2026-05-04 03:08 | 37.45361 | 126.43686 | 39 ft | 30 kts | 144° |
| 2026-05-04 03:09 | 37.45189 | 126.43838 | 39 ft | 31 kts | 144° |
| 2026-05-04 03:09 | 37.45003 | 126.44003 | 39 ft | 33 kts | 144° |
| 2026-05-04 03:09 | 37.44812 | 126.44173 | 39 ft | 35 kts | 144° |
| 2026-05-04 03:09 | 37.44611 | 126.44352 | 39 ft | 36 kts | 145° |
| 2026-05-04 03:10 | 37.44477 | 126.44398 | 39 ft | 7 kts | 227° |
| 2026-05-04 03:10 | 37.44448 | 126.44337 | 39 ft | 9 kts | 232° |
| 2026-05-04 03:10 | 37.44426 | 126.44301 | 39 ft | 0 kts | 234° |
| 2026-05-04 03:11 | 37.44394 | 126.44243 | 39 ft | 10 kts | 235° |
| 2026-05-04 03:12 | 37.44378 | 126.44151 | 39 ft | 11 kts | 287° |
| 2026-05-04 03:12 | 37.44396 | 126.44128 | 39 ft | 0 kts | 322° |
| 2026-05-04 03:12 | 37.44398 | 126.44126 | 39 ft | 5 kts | 322° |
| 2026-05-04 03:12 | 37.44587 | 126.43951 | 39 ft | 70 kts | 323° |
| 2026-05-04 03:13 | 37.45172 | 126.43435 | 39 ft | 136 kts | 324° |
| 2026-05-04 03:13 | 37.46076 | 126.42666 | 417 ft | 160 kts | 326° |
| 2026-05-04 03:13 | 37.47052 | 126.41858 | 1011 ft | 182 kts | 325° |
| 2026-05-04 03:13 | 37.48050 | 126.40756 | 1410 ft | 205 kts | 313° |
| 2026-05-04 03:14 | 37.48983 | 126.39337 | 2035 ft | 210 kts | 310° |
| 2026-05-04 03:14 | 37.49892 | 126.37881 | 2839 ft | 216 kts | 308° |
| 2026-05-04 03:14 | 37.50508 | 126.36100 | 4047 ft | 230 kts | 285° |
| 2026-05-04 03:14 | 37.50646 | 126.34037 | 5370 ft | 242 kts | 277° |
| 2026-05-04 03:15 | 37.50682 | 126.31887 | 6810 ft | 247 kts | 277° |
| 2026-05-04 03:15 | 37.50721 | 126.29696 | 8092 ft | 255 kts | 278° |
| 2026-05-04 03:15 | 37.50769 | 126.27430 | 9333 ft | 262 kts | 278° |
| 2026-05-04 03:15 | 37.50821 | 126.25101 | 10465 ft | 271 kts | 279° |
| 2026-05-04 03:16 | 37.50879 | 126.22632 | 11041 ft | 297 kts | 277° |
| 2026-05-04 03:16 | 37.50603 | 126.19898 | 11430 ft | 331 kts | 263° |
| 2026-05-04 03:16 | 37.50435 | 126.17002 | 12224 ft | 335 kts | 284° |
| 2026-05-04 03:16 | 37.51312 | 126.14260 | 12781 ft | 348 kts | 308° |
| 2026-05-04 03:17 | 37.53145 | 126.12233 | 13507 ft | 360 kts | 332° |
| 2026-05-04 03:17 | 37.55574 | 126.11361 | 14478 ft | 369 kts | 354° |
| 2026-05-04 03:17 | 37.58131 | 126.11719 | 15027 ft | 380 kts | 14° |
| 2026-05-04 03:17 | 37.60501 | 126.13384 | 15625 ft | 401 kts | 36° |
| 2026-05-04 03:18 | 37.62295 | 126.16151 | 16315 ft | 420 kts | 56° |
| 2026-05-04 03:18 | 37.63293 | 126.19675 | 16815 ft | 437 kts | 75° |
| 2026-05-04 03:18 | 37.63485 | 126.23556 | 16984 ft | 449 kts | 87° |
| 2026-05-04 03:18 | 37.63279 | 126.27508 | 16996 ft | 454 kts | 91° |
| 2026-05-04 03:19 | 37.63012 | 126.31486 | 16995 ft | 454 kts | 90° |
| 2026-05-04 03:19 | 37.62842 | 126.35462 | 16993 ft | 453 kts | 88° |
| 2026-05-04 03:19 | 37.62800 | 126.39430 | 16996 ft | 452 kts | 85° |
| 2026-05-04 03:19 | 37.62860 | 126.43334 | 16995 ft | 450 kts | 83° |
| 2026-05-04 03:20 | 37.62942 | 126.46003 | 16993 ft | 450 kts | 83° |
| 2026-05-04 03:20 | 37.63155 | 126.51267 | 16993 ft | 449 kts | 82° |
| 2026-05-04 03:20 | 37.63270 | 126.53873 | 16994 ft | 449 kts | 82° |
| 2026-05-04 03:20 | 37.63442 | 126.57808 | 16992 ft | 449 kts | 82° |
| 2026-05-04 03:21 | 37.63662 | 126.63039 | 16994 ft | 451 kts | 82° |
| 2026-05-04 03:21 | 37.63817 | 126.66976 | 16991 ft | 451 kts | 82° |
| 2026-05-04 03:21 | 37.63967 | 126.70940 | 16994 ft | 451 kts | 82° |
| 2026-05-04 03:21 | 37.64113 | 126.74896 | 16995 ft | 451 kts | 82° |
| 2026-05-04 03:22 | 37.64210 | 126.77507 | 16996 ft | 451 kts | 82° |
| 2026-05-04 03:22 | 37.64354 | 126.81460 | 16996 ft | 451 kts | 82° |
| 2026-05-04 03:22 | 37.64497 | 126.85412 | 16991 ft | 451 kts | 82° |
| 2026-05-04 03:22 | 37.64640 | 126.89372 | 16993 ft | 451 kts | 82° |
| 2026-05-04 03:23 | 37.64782 | 126.93315 | 16992 ft | 451 kts | 82° |
| 2026-05-04 03:23 | 37.64923 | 126.97283 | 16990 ft | 451 kts | 82° |
| 2026-05-04 03:23 | 37.65062 | 127.01230 | 16976 ft | 451 kts | 82° |
| 2026-05-04 03:23 | 37.65200 | 127.05174 | 16979 ft | 451 kts | 82° |
| 2026-05-04 03:24 | 37.65335 | 127.09137 | 16968 ft | 451 kts | 82° |
| 2026-05-04 03:24 | 37.65466 | 127.13040 | 16972 ft | 451 kts | 82° |
| 2026-05-04 03:24 | 37.65600 | 127.17047 | 16975 ft | 451 kts | 82° |
| 2026-05-04 03:24 | 37.65731 | 127.21008 | 16974 ft | 451 kts | 82° |
| 2026-05-04 03:25 | 37.65857 | 127.24953 | 16971 ft | 450 kts | 83° |
| 2026-05-04 03:25 | 37.65981 | 127.28895 | 16970 ft | 450 kts | 82° |
| 2026-05-04 03:25 | 37.66111 | 127.32852 | 16961 ft | 450 kts | 82° |
| 2026-05-04 03:25 | 37.66247 | 127.36791 | 16971 ft | 450 kts | 82° |
| 2026-05-04 03:26 | 37.66376 | 127.40743 | 16958 ft | 450 kts | 83° |
| 2026-05-04 03:26 | 37.66498 | 127.44681 | 16948 ft | 449 kts | 82° |
| 2026-05-04 03:26 | 37.66619 | 127.48623 | 16950 ft | 449 kts | 83° |
| 2026-05-04 03:26 | 37.66739 | 127.52565 | 16955 ft | 450 kts | 83° |
| 2026-05-04 03:27 | 37.66858 | 127.56507 | 16949 ft | 450 kts | 83° |
| 2026-05-04 03:27 | 37.66975 | 127.60455 | 16937 ft | 450 kts | 82° |
| 2026-05-04 03:27 | 37.67111 | 127.64401 | 16953 ft | 449 kts | 83° |
| 2026-05-04 03:27 | 37.67230 | 127.68343 | 16949 ft | 449 kts | 83° |
| 2026-05-04 03:28 | 37.67345 | 127.72290 | 16941 ft | 450 kts | 83° |
| 2026-05-04 03:28 | 37.67454 | 127.76255 | 16941 ft | 451 kts | 83° |
| 2026-05-04 03:28 | 37.67561 | 127.80212 | 16938 ft | 451 kts | 83° |
| 2026-05-04 03:28 | 37.67670 | 127.84162 | 16938 ft | 451 kts | 83° |
| 2026-05-04 03:29 | 37.67778 | 127.88129 | 16942 ft | 451 kts | 83° |
| 2026-05-04 03:29 | 37.67880 | 127.92084 | 16932 ft | 451 kts | 83° |
| 2026-05-04 03:29 | 37.67983 | 127.96038 | 16929 ft | 451 kts | 83° |
| 2026-05-04 03:29 | 37.68087 | 127.99954 | 16927 ft | 452 kts | 83° |
| 2026-05-04 03:30 | 37.68191 | 128.03920 | 16927 ft | 452 kts | 84° |
| 2026-05-04 03:30 | 37.68294 | 128.07891 | 16926 ft | 452 kts | 84° |
| 2026-05-04 03:30 | 37.68397 | 128.11870 | 16921 ft | 452 kts | 84° |
| 2026-05-04 03:30 | 37.68501 | 128.15842 | 16924 ft | 452 kts | 84° |
| 2026-05-04 03:31 | 37.68603 | 128.19806 | 16925 ft | 452 kts | 84° |
| 2026-05-04 03:31 | 37.68701 | 128.23780 | 16921 ft | 453 kts | 84° |
| 2026-05-04 03:31 | 37.68794 | 128.27747 | 16919 ft | 453 kts | 84° |
| 2026-05-04 03:31 | 37.68888 | 128.31730 | 16913 ft | 452 kts | 84° |
| 2026-05-04 03:32 | 37.68983 | 128.35696 | 16924 ft | 453 kts | 84° |
| 2026-05-04 03:32 | 37.69080 | 128.39619 | 16908 ft | 453 kts | 84° |
| 2026-05-04 03:32 | 37.69173 | 128.43593 | 16909 ft | 453 kts | 84° |
| 2026-05-04 03:32 | 37.69261 | 128.47568 | 16915 ft | 453 kts | 84° |
| 2026-05-04 03:33 | 37.69347 | 128.51540 | 16916 ft | 452 kts | 85° |
| 2026-05-04 03:33 | 37.69433 | 128.55507 | 16916 ft | 452 kts | 85° |
| 2026-05-04 03:33 | 37.69519 | 128.59479 | 16915 ft | 452 kts | 85° |
| 2026-05-04 03:33 | 37.69602 | 128.63458 | 16922 ft | 452 kts | 85° |
| 2026-05-04 03:34 | 37.69684 | 128.67433 | 16916 ft | 453 kts | 85° |
| 2026-05-04 03:34 | 37.69761 | 128.71373 | 16590 ft | 444 kts | 85° |
| 2026-05-04 03:34 | 37.69831 | 128.75223 | 16177 ft | 433 kts | 86° |
| 2026-05-04 03:34 | 37.69871 | 128.78987 | 15650 ft | 426 kts | 87° |
| 2026-05-04 03:35 | 37.69840 | 128.82719 | 15046 ft | 424 kts | 89° |
| 2026-05-04 03:35 | 37.69777 | 128.86441 | 14425 ft | 422 kts | 89° |
| 2026-05-04 03:35 | 37.69707 | 128.90133 | 13819 ft | 418 kts | 89° |
| 2026-05-04 03:35 | 37.69643 | 128.93746 | 13163 ft | 414 kts | 89° |
| 2026-05-04 03:36 | 37.69587 | 128.97362 | 12505 ft | 409 kts | 89° |
| 2026-05-04 03:36 | 37.69535 | 129.00932 | 11858 ft | 405 kts | 89° |
| 2026-05-04 03:36 | 37.69487 | 129.04470 | 11217 ft | 400 kts | 89° |
| 2026-05-04 03:36 | 37.69444 | 129.07954 | 10588 ft | 395 kts | 89° |
| 2026-05-04 03:37 | 37.69401 | 129.11407 | 9988 ft | 390 kts | 89° |
| 2026-05-04 03:37 | 37.69357 | 129.14816 | 9336 ft | 386 kts | 89° |
| 2026-05-04 03:37 | 37.69313 | 129.18193 | 8672 ft | 383 kts | 89° |
| 2026-05-04 03:37 | 37.69268 | 129.21536 | 8023 ft | 379 kts | 89° |
| 2026-05-04 03:38 | 37.69227 | 129.24852 | 7391 ft | 376 kts | 88° |
| 2026-05-04 03:38 | 37.69194 | 129.28142 | 6762 ft | 373 kts | 88° |
| 2026-05-04 03:38 | 37.69158 | 129.31353 | 6138 ft | 353 kts | 88° |
| 2026-05-04 03:38 | 37.69110 | 129.34334 | 5513 ft | 328 kts | 89° |
| 2026-05-04 03:39 | 37.69056 | 129.37110 | 5089 ft | 303 kts | 88° |
| 2026-05-04 03:39 | 37.69006 | 129.39667 | 4958 ft | 285 kts | 88° |
| 2026-05-04 03:39 | 37.68967 | 129.42169 | 4937 ft | 284 kts | 88° |
| 2026-05-04 03:39 | 37.68934 | 129.44666 | 4935 ft | 285 kts | 88° |
| 2026-05-04 03:40 | 37.68901 | 129.47169 | 4838 ft | 285 kts | 88° |
| 2026-05-04 03:40 | 37.68865 | 129.49656 | 4372 ft | 283 kts | 88° |
| 2026-05-04 03:40 | 37.68826 | 129.52091 | 3634 ft | 279 kts | 88° |
| 2026-05-04 03:40 | 37.68788 | 129.54522 | 2869 ft | 275 kts | 89° |
| 2026-05-04 03:41 | 37.68749 | 129.56929 | 2240 ft | 272 kts | 89° |
| 2026-05-04 03:41 | 37.68710 | 129.59311 | 1960 ft | 272 kts | 89° |
| 2026-05-04 03:41 | 37.68669 | 129.61697 | 1930 ft | 270 kts | 89° |
| 2026-05-04 03:41 | 37.68627 | 129.64075 | 1933 ft | 272 kts | 89° |
| 2026-05-04 03:42 | 37.68585 | 129.66443 | 1852 ft | 266 kts | 89° |
| 2026-05-04 03:42 | 37.68547 | 129.68728 | 1706 ft | 254 kts | 89° |
| 2026-05-04 03:42 | 37.68514 | 129.70879 | 1575 ft | 244 kts | 89° |
| 2026-05-04 03:42 | 37.68482 | 129.72991 | 1354 ft | 239 kts | 88° |
| 2026-05-04 03:43 | 37.68459 | 129.75088 | 1043 ft | 238 kts | 89° |
| 2026-05-04 03:43 | 37.68426 | 129.77166 | 933 ft | 235 kts | 88° |
| 2026-05-04 03:43 | 37.68393 | 129.79232 | 924 ft | 235 kts | 89° |
| 2026-05-04 03:43 | 37.68356 | 129.81303 | 928 ft | 235 kts | 88° |
| 2026-05-04 03:44 | 37.68316 | 129.83366 | 924 ft | 234 kts | 88° |
| 2026-05-04 03:44 | 37.68275 | 129.85436 | 925 ft | 237 kts | 88° |
| 2026-05-04 03:44 | 37.68240 | 129.87518 | 926 ft | 236 kts | 88° |
| 2026-05-04 03:44 | 37.68200 | 129.89582 | 932 ft | 234 kts | 89° |
| 2026-05-04 03:45 | 37.68157 | 129.91690 | 928 ft | 253 kts | 88° |
| 2026-05-04 03:45 | 37.68105 | 129.93974 | 919 ft | 265 kts | 89° |
| 2026-05-04 03:45 | 37.68045 | 129.96304 | 926 ft | 265 kts | 89° |
| 2026-05-04 03:45 | 37.67981 | 129.98631 | 759 ft | 267 kts | 89° |
| 2026-05-04 03:46 | 37.67924 | 130.00959 | 635 ft | 264 kts | 89° |
| 2026-05-04 03:46 | 37.67868 | 130.03269 | 632 ft | 262 kts | 89° |
| 2026-05-04 03:46 | 37.67820 | 130.05429 | 621 ft | 261 kts | 89° |
| 2026-05-04 03:46 | 37.67776 | 130.07737 | 617 ft | 264 kts | 89° |
| 2026-05-04 03:47 | 37.67727 | 130.10059 | 633 ft | 264 kts | 89° |
| 2026-05-04 03:47 | 37.67677 | 130.12460 | 618 ft | 302 kts | 89° |
| 2026-05-04 03:47 | 37.67628 | 130.15392 | 582 ft | 348 kts | 89° |
| 2026-05-04 03:47 | 37.67581 | 130.18410 | 632 ft | 339 kts | 89° |
| 2026-05-04 03:48 | 37.67522 | 130.21371 | 626 ft | 337 kts | 89° |
| 2026-05-04 03:48 | 37.67453 | 130.24294 | 631 ft | 337 kts | 90° |
| 2026-05-04 03:48 | 37.67377 | 130.27290 | 634 ft | 340 kts | 89° |
| 2026-05-04 03:48 | 37.67308 | 130.30206 | 610 ft | 324 kts | 90° |
| 2026-05-04 03:49 | 37.67233 | 130.32866 | 641 ft | 282 kts | 90° |
| 2026-05-04 03:49 | 37.67159 | 130.35246 | 636 ft | 261 kts | 89° |
| 2026-05-04 03:49 | 37.67088 | 130.37458 | 632 ft | 244 kts | 91° |
| 2026-05-04 03:49 | 37.66796 | 130.39532 | 799 ft | 237 kts | 101° |
| 2026-05-04 03:50 | 37.66404 | 130.41589 | 922 ft | 242 kts | 102° |
| 2026-05-04 03:50 | 37.65989 | 130.43648 | 922 ft | 243 kts | 102° |
| 2026-05-04 03:50 | 37.65498 | 130.45690 | 919 ft | 244 kts | 107° |
| 2026-05-04 03:50 | 37.64955 | 130.47724 | 919 ft | 244 kts | 107° |
| 2026-05-04 03:51 | 37.64410 | 130.49750 | 923 ft | 244 kts | 107° |
| 2026-05-04 03:51 | 37.63857 | 130.51764 | 1019 ft | 242 kts | 107° |
| 2026-05-04 03:51 | 37.63306 | 130.53791 | 1529 ft | 246 kts | 107° |
| 2026-05-04 03:51 | 37.62753 | 130.55834 | 1867 ft | 247 kts | 107° |
| 2026-05-04 03:52 | 37.62197 | 130.57888 | 1923 ft | 247 kts | 107° |
| 2026-05-04 03:52 | 37.61642 | 130.59964 | 1918 ft | 253 kts | 107° |
| 2026-05-04 03:52 | 37.61068 | 130.62084 | 1918 ft | 258 kts | 107° |
| 2026-05-04 03:52 | 37.60477 | 130.64227 | 1923 ft | 259 kts | 107° |
| 2026-05-04 03:53 | 37.59899 | 130.66348 | 1921 ft | 258 kts | 107° |
| 2026-05-04 03:53 | 37.59326 | 130.68486 | 1915 ft | 257 kts | 107° |
| 2026-05-04 03:53 | 37.58748 | 130.70622 | 1919 ft | 256 kts | 107° |
| 2026-05-04 03:53 | 37.58164 | 130.72738 | 1918 ft | 255 kts | 107° |
| 2026-05-04 03:54 | 37.57581 | 130.74859 | 1996 ft | 257 kts | 107° |
| 2026-05-04 03:54 | 37.56993 | 130.77016 | 2496 ft | 263 kts | 107° |
| 2026-05-04 03:54 | 37.56396 | 130.79181 | 2850 ft | 260 kts | 107° |
| 2026-05-04 03:54 | 37.55818 | 130.81328 | 2916 ft | 258 kts | 103° |
| 2026-05-04 03:55 | 37.55620 | 130.83552 | 2927 ft | 254 kts | 85° |
| 2026-05-04 03:55 | 37.55695 | 130.85775 | 2919 ft | 253 kts | 82° |
| 2026-05-04 03:55 | 37.55798 | 130.87990 | 2915 ft | 253 kts | 82° |
| 2026-05-04 03:55 | 37.55760 | 130.90217 | 2894 ft | 258 kts | 98° |
| 2026-05-04 03:56 | 37.54961 | 130.92244 | 2921 ft | 263 kts | 131° |
| 2026-05-04 03:56 | 37.53463 | 130.93538 | 2919 ft | 263 kts | 162° |
| 2026-05-04 03:56 | 37.51679 | 130.93910 | 2921 ft | 261 kts | 184° |
| 2026-05-04 03:56 | 37.49888 | 130.93796 | 2919 ft | 260 kts | 191° |
| 2026-05-04 03:57 | 37.48158 | 130.93272 | 3225 ft | 253 kts | 215° |
| 2026-05-04 03:57 | 37.46932 | 130.91814 | 4015 ft | 238 kts | 248° |
| 2026-05-04 03:57 | 37.46530 | 130.89899 | 4638 ft | 221 kts | 278° |
| 2026-05-04 03:57 | 37.47017 | 130.88136 | 5010 ft | 215 kts | 310° |
| 2026-05-04 03:58 | 37.49284 | 130.85565 | 6281 ft | 222 kts | 322° |
| 2026-05-04 03:58 | 37.50651 | 130.84698 | 6804 ft | 224 kts | 346° |
| 2026-05-04 03:58 | 37.52181 | 130.84622 | 6885 ft | 216 kts | 358° |
| 2026-05-04 03:59 | 37.53664 | 130.84362 | 6391 ft | 219 kts | 335° |
| 2026-05-04 03:59 | 37.54874 | 130.83207 | 5893 ft | 222 kts | 308° |
| 2026-05-04 03:59 | 37.55463 | 130.81420 | 5544 ft | 225 kts | 282° |
| 2026-05-04 03:59 | 37.55280 | 130.79443 | 5185 ft | 235 kts | 256° |
| 2026-05-04 04:00 | 37.54331 | 130.77724 | 4838 ft | 246 kts | 230° |
| 2026-05-04 04:00 | 37.52805 | 130.76662 | 4470 ft | 258 kts | 203° |
| 2026-05-04 04:00 | 37.51001 | 130.76488 | 4138 ft | 265 kts | 179° |
| 2026-05-04 04:00 | 37.49193 | 130.76979 | 3779 ft | 269 kts | 162° |
| 2026-05-04 04:01 | 37.47517 | 130.78013 | 3495 ft | 268 kts | 153° |
| 2026-05-04 04:01 | 37.45990 | 130.79295 | 3124 ft | 269 kts | 137° |
| 2026-05-04 04:01 | 37.44835 | 130.81120 | 2931 ft | 266 kts | 118° |
| 2026-05-04 04:01 | 37.44253 | 130.83303 | 2922 ft | 261 kts | 97° |
| 2026-05-04 04:02 | 37.44021 | 130.85552 | 2915 ft | 257 kts | 91° |
| 2026-05-04 04:02 | 37.44193 | 130.87737 | 2926 ft | 248 kts | 69° |
| 2026-05-04 04:02 | 37.44770 | 130.89756 | 2923 ft | 243 kts | 63° |
| 2026-05-04 04:02 | 37.45420 | 130.91722 | 2925 ft | 243 kts | 62° |
| 2026-05-04 04:03 | 37.46089 | 130.93675 | 2899 ft | 242 kts | 59° |
| 2026-05-04 04:03 | 37.47108 | 130.95286 | 2919 ft | 231 kts | 32° |
| 2026-05-04 04:03 | 37.48519 | 130.96067 | 2918 ft | 220 kts | 5° |
| 2026-05-04 04:03 | 37.50008 | 130.95867 | 2923 ft | 213 kts | 338° |
| 2026-05-04 04:04 | 37.51191 | 130.94828 | 2920 ft | 213 kts | 313° |
| 2026-05-04 04:04 | 37.51832 | 130.93109 | 2929 ft | 219 kts | 287° |
| 2026-05-04 04:04 | 37.52106 | 130.91246 | 3003 ft | 218 kts | 286° |
| 2026-05-04 04:04 | 37.52295 | 130.89327 | 3139 ft | 225 kts | 279° |
| 2026-05-04 04:05 | 37.52393 | 130.87959 | 3474 ft | 241 kts | 282° |
| 2026-05-04 04:05 | 37.52572 | 130.85821 | 4462 ft | 241 kts | 282° |
| 2026-05-04 04:05 | 37.52726 | 130.83772 | 5815 ft | 234 kts | 278° |
| 2026-05-04 04:05 | 37.52671 | 130.81655 | 6550 ft | 255 kts | 270° |
| 2026-05-04 04:06 | 37.52321 | 130.78509 | 7091 ft | 291 kts | 265° |
| 2026-05-04 04:06 | 37.52083 | 130.76758 | 7350 ft | 308 kts | 264° |
| 2026-05-04 04:06 | 37.51692 | 130.74001 | 7777 ft | 330 kts | 263° |
| 2026-05-04 04:06 | 37.51264 | 130.71095 | 8420 ft | 343 kts | 262° |
| 2026-05-04 04:07 | 37.50820 | 130.68146 | 9279 ft | 350 kts | 262° |
| 2026-05-04 04:07 | 37.50366 | 130.65114 | 10138 ft | 355 kts | 262° |
| 2026-05-04 04:07 | 37.49909 | 130.62041 | 10974 ft | 359 kts | 262° |
| 2026-05-04 04:07 | 37.49449 | 130.58939 | 11839 ft | 363 kts | 262° |
| 2026-05-04 04:08 | 37.48982 | 130.55791 | 12693 ft | 367 kts | 262° |
| 2026-05-04 04:08 | 37.48512 | 130.52620 | 13565 ft | 370 kts | 262° |
| 2026-05-04 04:08 | 37.48038 | 130.49417 | 14339 ft | 374 kts | 262° |
| 2026-05-04 04:08 | 37.47556 | 130.46166 | 15021 ft | 380 kts | 262° |
| 2026-05-04 04:09 | 37.47063 | 130.42839 | 15752 ft | 384 kts | 262° |
| 2026-05-04 04:09 | 37.46569 | 130.39516 | 16417 ft | 389 kts | 263° |
| 2026-05-04 04:09 | 37.46069 | 130.36155 | 16837 ft | 391 kts | 263° |
| 2026-05-04 04:09 | 37.45566 | 130.32779 | 16928 ft | 392 kts | 263° |
| 2026-05-04 04:10 | 37.45067 | 130.29446 | 16925 ft | 394 kts | 263° |
| 2026-05-04 04:10 | 37.44558 | 130.26062 | 16931 ft | 394 kts | 263° |
| 2026-05-04 04:10 | 37.44047 | 130.22668 | 16928 ft | 395 kts | 263° |
| 2026-05-04 04:10 | 37.43535 | 130.19276 | 16929 ft | 394 kts | 263° |
| 2026-05-04 04:11 | 37.43023 | 130.15883 | 16933 ft | 394 kts | 263° |
| 2026-05-04 04:11 | 37.42511 | 130.12502 | 16932 ft | 394 kts | 263° |
| 2026-05-04 04:11 | 37.41997 | 130.09108 | 16936 ft | 394 kts | 263° |
| 2026-05-04 04:11 | 37.41482 | 130.05717 | 16933 ft | 394 kts | 263° |
| 2026-05-04 04:12 | 37.40966 | 130.02327 | 16935 ft | 394 kts | 263° |
| 2026-05-04 04:12 | 37.40451 | 129.98951 | 16933 ft | 394 kts | 263° |
| 2026-05-04 04:12 | 37.39942 | 129.95615 | 16936 ft | 394 kts | 263° |
| 2026-05-04 04:12 | 37.39417 | 129.92186 | 16940 ft | 394 kts | 263° |
| 2026-05-04 04:13 | 37.38899 | 129.88803 | 16938 ft | 393 kts | 263° |
| 2026-05-04 04:13 | 37.38380 | 129.85430 | 16942 ft | 393 kts | 263° |
| 2026-05-04 04:13 | 37.37860 | 129.82053 | 16938 ft | 393 kts | 263° |
| 2026-05-04 04:13 | 37.37340 | 129.78680 | 16938 ft | 393 kts | 263° |
| 2026-05-04 04:14 | 37.36818 | 129.75307 | 16939 ft | 393 kts | 263° |
| 2026-05-04 04:14 | 37.36302 | 129.71976 | 16937 ft | 392 kts | 263° |
| 2026-05-04 04:14 | 37.35779 | 129.68605 | 16938 ft | 392 kts | 263° |
| 2026-05-04 04:14 | 37.35256 | 129.65239 | 16940 ft | 392 kts | 263° |
| 2026-05-04 04:15 | 37.34733 | 129.61879 | 16943 ft | 392 kts | 263° |
| 2026-05-04 04:15 | 37.34208 | 129.58516 | 16944 ft | 392 kts | 263° |
| 2026-05-04 04:15 | 37.33683 | 129.55161 | 16946 ft | 392 kts | 263° |
| 2026-05-04 04:15 | 37.33155 | 129.51790 | 16941 ft | 392 kts | 263° |
| 2026-05-04 04:16 | 37.32626 | 129.48423 | 16940 ft | 392 kts | 263° |
| 2026-05-04 04:16 | 37.32098 | 129.45066 | 16941 ft | 392 kts | 263° |
| 2026-05-04 04:16 | 37.31569 | 129.41708 | 16940 ft | 392 kts | 263° |
| 2026-05-04 04:16 | 37.31039 | 129.38344 | 16938 ft | 392 kts | 263° |
| 2026-05-04 04:17 | 37.30506 | 129.34979 | 16935 ft | 392 kts | 263° |
| 2026-05-04 04:17 | 37.29973 | 129.31620 | 16936 ft | 392 kts | 263° |
| 2026-05-04 04:17 | 37.29440 | 129.28259 | 16935 ft | 392 kts | 263° |
| 2026-05-04 04:17 | 37.28906 | 129.24899 | 16931 ft | 392 kts | 263° |
| 2026-05-04 04:18 | 37.28376 | 129.21577 | 16936 ft | 393 kts | 263° |
| 2026-05-04 04:18 | 37.27839 | 129.18211 | 16930 ft | 392 kts | 263° |
| 2026-05-04 04:18 | 37.27300 | 129.14849 | 16926 ft | 392 kts | 263° |
| 2026-05-04 04:18 | 37.26764 | 129.11505 | 16922 ft | 391 kts | 263° |
| 2026-05-04 04:19 | 37.26225 | 129.08156 | 16927 ft | 391 kts | 263° |
| 2026-05-04 04:19 | 37.25685 | 129.04809 | 16916 ft | 391 kts | 263° |
| 2026-05-04 04:19 | 37.25145 | 129.01461 | 16920 ft | 391 kts | 263° |
| 2026-05-04 04:19 | 37.24605 | 128.98115 | 16914 ft | 391 kts | 263° |
| 2026-05-04 04:20 | 37.24065 | 128.94778 | 16922 ft | 390 kts | 263° |
| 2026-05-04 04:20 | 37.23525 | 128.91440 | 16909 ft | 390 kts | 263° |
| 2026-05-04 04:20 | 37.22983 | 128.88102 | 16914 ft | 391 kts | 263° |
| 2026-05-04 04:20 | 37.22438 | 128.84752 | 16911 ft | 391 kts | 263° |
| 2026-05-04 04:21 | 37.21891 | 128.81416 | 16920 ft | 390 kts | 263° |
| 2026-05-04 04:21 | 37.21352 | 128.78124 | 16915 ft | 391 kts | 263° |
| 2026-05-04 04:21 | 37.20807 | 128.74781 | 16916 ft | 390 kts | 263° |
| 2026-05-04 04:21 | 37.20261 | 128.71445 | 16915 ft | 391 kts | 263° |
| 2026-05-04 04:22 | 37.19713 | 128.68106 | 16915 ft | 391 kts | 263° |
| 2026-05-04 04:22 | 37.19161 | 128.64760 | 16917 ft | 391 kts | 263° |
| 2026-05-04 04:22 | 37.18610 | 128.61419 | 16910 ft | 391 kts | 263° |
| 2026-05-04 04:22 | 37.18059 | 128.58079 | 16912 ft | 391 kts | 263° |
| 2026-05-04 04:23 | 37.17507 | 128.54744 | 16910 ft | 391 kts | 263° |
| 2026-05-04 04:23 | 37.16955 | 128.51402 | 16926 ft | 392 kts | 263° |
| 2026-05-04 04:23 | 37.16398 | 128.48055 | 16925 ft | 392 kts | 263° |
| 2026-05-04 04:23 | 37.15842 | 128.44710 | 16924 ft | 392 kts | 262° |
| 2026-05-04 04:24 | 37.15284 | 128.41367 | 16917 ft | 391 kts | 263° |
| 2026-05-04 04:24 | 37.14726 | 128.38032 | 16917 ft | 391 kts | 263° |
| 2026-05-04 04:24 | 37.14173 | 128.34733 | 16922 ft | 391 kts | 263° |
| 2026-05-04 04:24 | 37.13615 | 128.31401 | 16922 ft | 391 kts | 262° |
| 2026-05-04 04:25 | 37.13056 | 128.28064 | 16923 ft | 392 kts | 263° |
| 2026-05-04 04:25 | 37.12493 | 128.24718 | 16923 ft | 391 kts | 262° |
| 2026-05-04 04:25 | 37.11930 | 128.21384 | 16926 ft | 391 kts | 262° |
| 2026-05-04 04:25 | 37.11367 | 128.18051 | 16927 ft | 391 kts | 262° |
| 2026-05-04 04:26 | 37.10804 | 128.14727 | 16928 ft | 391 kts | 262° |
| 2026-05-04 04:26 | 37.10239 | 128.11391 | 16928 ft | 391 kts | 262° |
| 2026-05-04 04:26 | 37.09672 | 128.08049 | 16925 ft | 392 kts | 262° |
| 2026-05-04 04:26 | 37.09104 | 128.04712 | 16925 ft | 392 kts | 262° |
| 2026-05-04 04:27 | 37.08535 | 128.01372 | 16930 ft | 392 kts | 262° |
| 2026-05-04 04:27 | 37.07966 | 127.98036 | 16933 ft | 391 kts | 262° |
| 2026-05-04 04:27 | 37.07397 | 127.94709 | 16931 ft | 391 kts | 262° |
| 2026-05-04 04:27 | 37.06825 | 127.91366 | 16931 ft | 391 kts | 262° |
| 2026-05-04 04:28 | 37.06260 | 127.88075 | 16934 ft | 391 kts | 262° |
| 2026-05-04 04:28 | 37.05687 | 127.84743 | 16936 ft | 392 kts | 262° |
| 2026-05-04 04:28 | 37.05112 | 127.81410 | 16941 ft | 392 kts | 262° |
| 2026-05-04 04:28 | 37.04538 | 127.78073 | 16931 ft | 392 kts | 262° |
| 2026-05-04 04:29 | 37.03963 | 127.74743 | 16937 ft | 391 kts | 262° |
| 2026-05-04 04:29 | 37.03387 | 127.71418 | 16938 ft | 391 kts | 261° |
| 2026-05-04 04:29 | 37.02895 | 127.68074 | 16940 ft | 389 kts | 266° |
| 2026-05-04 04:29 | 37.02911 | 127.64705 | 16957 ft | 386 kts | 280° |
| 2026-05-04 04:30 | 37.03678 | 127.61505 | 16948 ft | 385 kts | 296° |
| 2026-05-04 04:30 | 37.05000 | 127.58597 | 16937 ft | 386 kts | 296° |
| 2026-05-04 04:30 | 37.05945 | 127.55509 | 16621 ft | 374 kts | 286° |
| 2026-05-04 04:30 | 37.06447 | 127.52315 | 15689 ft | 375 kts | 280° |
| 2026-05-04 04:31 | 37.06798 | 127.49060 | 14748 ft | 377 kts | 278° |
| 2026-05-04 04:31 | 37.07128 | 127.45802 | 13933 ft | 376 kts | 278° |
| 2026-05-04 04:31 | 37.07459 | 127.42557 | 13057 ft | 374 kts | 278° |
| 2026-05-04 04:31 | 37.07784 | 127.39380 | 12207 ft | 372 kts | 278° |
| 2026-05-04 04:32 | 37.08114 | 127.36177 | 11356 ft | 369 kts | 278° |
| 2026-05-04 04:32 | 37.08442 | 127.32991 | 10495 ft | 368 kts | 278° |
| 2026-05-04 04:32 | 37.08767 | 127.29814 | 9693 ft | 366 kts | 279° |
| 2026-05-04 04:32 | 37.09088 | 127.26676 | 8917 ft | 361 kts | 279° |
| 2026-05-04 04:33 | 37.09402 | 127.23619 | 8538 ft | 346 kts | 279° |
| 2026-05-04 04:33 | 37.09709 | 127.20704 | 8258 ft | 330 kts | 280° |
| 2026-05-04 04:33 | 37.10003 | 127.17915 | 7992 ft | 315 kts | 280° |
| 2026-05-04 04:33 | 37.10285 | 127.15258 | 7760 ft | 301 kts | 280° |
| 2026-05-04 04:34 | 37.10553 | 127.12715 | 7567 ft | 288 kts | 280° |
| 2026-05-04 04:34 | 37.10805 | 127.10280 | 7377 ft | 275 kts | 280° |
| 2026-05-04 04:34 | 37.11035 | 127.08004 | 7219 ft | 264 kts | 281° |
| 2026-05-04 04:34 | 37.11261 | 127.05737 | 7061 ft | 253 kts | 281° |
| 2026-05-04 04:35 | 37.11472 | 127.03623 | 6937 ft | 243 kts | 281° |
| 2026-05-04 04:35 | 37.11674 | 127.01570 | 6812 ft | 233 kts | 281° |
| 2026-05-04 04:35 | 37.11867 | 126.99600 | 6693 ft | 223 kts | 281° |
| 2026-05-04 04:35 | 37.12053 | 126.97682 | 6486 ft | 219 kts | 281° |
| 2026-05-04 04:36 | 37.12238 | 126.95794 | 6242 ft | 217 kts | 281° |
| 2026-05-04 04:36 | 37.12425 | 126.93922 | 5971 ft | 216 kts | 281° |
| 2026-05-04 04:36 | 37.12613 | 126.92059 | 5718 ft | 215 kts | 281° |
| 2026-05-04 04:36 | 37.12796 | 126.90211 | 5463 ft | 214 kts | 281° |
| 2026-05-04 04:37 | 37.13853 | 126.84483 | 3892 ft | 242 kts | 288° |
| 2026-05-04 04:37 | 37.14275 | 126.82407 | 3432 ft | 248 kts | 287° |
| 2026-05-04 04:38 | 37.14703 | 126.80306 | 3080 ft | 250 kts | 287° |
| 2026-05-04 04:38 | 37.15117 | 126.78201 | 2999 ft | 250 kts | 287° |
| 2026-05-04 04:38 | 37.15536 | 126.76112 | 2980 ft | 249 kts | 288° |
| 2026-05-04 04:38 | 37.16024 | 126.74030 | 2993 ft | 249 kts | 294° |
| 2026-05-04 04:39 | 37.16916 | 126.72196 | 2998 ft | 247 kts | 316° |
| 2026-05-04 04:39 | 37.18244 | 126.70843 | 3017 ft | 246 kts | 327° |
| 2026-05-04 04:39 | 37.19656 | 126.69633 | 2985 ft | 247 kts | 327° |
| 2026-05-04 04:39 | 37.21084 | 126.68411 | 3000 ft | 249 kts | 326° |
| 2026-05-04 04:40 | 37.22501 | 126.67173 | 3024 ft | 249 kts | 326° |
| 2026-05-04 04:40 | 37.23922 | 126.65949 | 3001 ft | 243 kts | 327° |
| 2026-05-04 04:40 | 37.25273 | 126.64764 | 3005 ft | 230 kts | 326° |
| 2026-05-04 04:40 | 37.26526 | 126.63633 | 3028 ft | 216 kts | 326° |
| 2026-05-04 04:41 | 37.27704 | 126.62538 | 3017 ft | 203 kts | 323° |
| 2026-05-04 04:41 | 37.28785 | 126.61504 | 3025 ft | 187 kts | 325° |
| 2026-05-04 04:41 | 37.29814 | 126.60574 | 3027 ft | 180 kts | 326° |
| 2026-05-04 04:41 | 37.30849 | 126.59678 | 3027 ft | 181 kts | 327° |
| 2026-05-04 04:42 | 37.31854 | 126.58803 | 3021 ft | 171 kts | 326° |
| 2026-05-04 04:42 | 37.32776 | 126.57977 | 3056 ft | 158 kts | 326° |
| 2026-05-04 04:42 | 37.33669 | 126.57167 | 3038 ft | 159 kts | 326° |
| 2026-05-04 04:42 | 37.34569 | 126.56348 | 2965 ft | 160 kts | 325° |
| 2026-05-04 04:43 | 37.35468 | 126.55520 | 2754 ft | 160 kts | 326° |
| 2026-05-04 04:43 | 37.36378 | 126.54710 | 2531 ft | 160 kts | 326° |
| 2026-05-04 04:43 | 37.37290 | 126.53906 | 2309 ft | 160 kts | 326° |
| 2026-05-04 04:43 | 37.38193 | 126.53100 | 2106 ft | 156 kts | 326° |
| 2026-05-04 04:44 | 37.39048 | 126.52340 | 1895 ft | 145 kts | 326° |
| 2026-05-04 04:44 | 37.39853 | 126.51625 | 1705 ft | 139 kts | 326° |
| 2026-05-04 04:44 | 37.40620 | 126.50940 | 1523 ft | 130 kts | 325° |
| 2026-05-04 04:44 | 37.41342 | 126.50300 | 1364 ft | 124 kts | 324° |
| 2026-05-04 04:45 | 37.42060 | 126.49666 | 1181 ft | 126 kts | 322° |
| 2026-05-04 04:45 | 37.42792 | 126.49033 | 977 ft | 128 kts | 324° |
| 2026-05-04 04:45 | 37.43528 | 126.48385 | 650 ft | 129 kts | 322° |
| 2026-05-04 04:47 | 37.46919 | 126.45290 | 39 ft | 34 kts | 307° |
| 2026-05-04 04:47 | 37.46937 | 126.45111 | 39 ft | 19 kts | 243° |
| 2026-05-04 04:47 | 37.46860 | 126.44972 | 39 ft | 19 kts | 234° |
| 2026-05-04 04:47 | 37.46781 | 126.44832 | 39 ft | 20 kts | 234° |
| 2026-05-04 04:48 | 37.46721 | 126.44687 | 39 ft | 18 kts | 263° |
| 2026-05-04 04:49 | 37.46821 | 126.44231 | 39 ft | 19 kts | 317° |
| 2026-05-04 04:49 | 37.46917 | 126.44106 | 39 ft | 21 kts | 313° |
| 2026-05-04 04:49 | 37.47021 | 126.43969 | 39 ft | 17 kts | 314° |
| 2026-05-04 04:49 | 37.47036 | 126.43933 | 39 ft | 0 kts | 266° |
| 2026-05-04 04:50 | 37.47020 | 126.43917 | 37 ft | 5 kts | 218° |
| 2026-05-04 04:50 | 37.47006 | 126.43896 | 39 ft | 5 kts | 233° |
| 2026-05-04 04:50 | 37.46982 | 126.43854 | 39 ft | 5 kts | 233° |
| 2026-05-04 04:50 | 37.46980 | 126.43851 | 39 ft | 0 kts | 233° |